Time;durP1;ratioP1;P1;durP2;ratioP2;P2;SDS_P1;SDS_P2;PMS_P1;PMS_P2;Temp;Humidity;BMP_temperature;BMP_pressure;BME280_temperature;BME280_humidity;BME280_pressure;Samples;Min_cycle;Max_cycle;Signal;HPM_P1;HPM_P2
2022/03/02 00:01:36;;;;;;;;;41.75;35.00;;;;;14.20;44.72;100671.50;5033481;28;45501;-72
2022/03/02 00:04:02;;;;;;;;;45.75;37.00;;;;;14.38;44.34;100683.19;5034164;28;45421;-73
2022/03/02 00:06:28;;;;;;;;;44.25;34.50;;;;;14.49;43.60;100692.13;5034304;28;45550;-72
2022/03/02 00:08:54;;;;;;;;;36.00;29.50;;;;;14.47;43.43;100673.69;5034458;28;45478;-73
2022/03/02 00:11:19;;;;;;;;;38.75;32.25;;;;;14.05;43.01;100590.69;5034528;28;45541;-73
2022/03/02 00:13:45;;;;;;;;;33.75;27.00;;;;;14.51;43.24;100662.38;5037766;28;45390;-73
2022/03/02 00:16:11;;;;;;;;;30.25;25.75;;;;;14.61;42.95;100675.72;5038049;28;46582;-74
2022/03/02 00:18:38;;;;;;;;;33.00;29.50;;;;;14.63;43.17;100668.72;5037611;28;45558;-73
2022/03/02 00:21:04;;;;;;;;;28.75;27.50;;;;;14.66;43.54;100676.66;5037626;28;45388;-73
2022/03/02 00:23:29;;;;;;;;;29.00;28.75;;;;;14.61;43.91;100679.22;5038089;28;45322;-73
2022/03/02 00:25:56;;;;;;;;;36.50;29.25;;;;;14.55;41.95;100654.56;5037104;28;45344;-73
2022/03/02 00:28:22;;;;;;;;;30.25;27.75;;;;;14.61;43.98;100662.56;5037443;28;45584;-72
2022/03/02 00:30:48;;;;;;;;;31.50;28.75;;;;;14.60;44.60;100673.94;5038280;28;45403;-72
2022/03/02 00:33:13;;;;;;;;;35.25;31.75;;;;;14.45;44.19;100661.41;5037311;28;45503;-72
2022/03/02 00:35:39;;;;;;;;;33.75;31.00;;;;;14.44;44.88;100663.16;5037407;28;45644;-72
2022/03/02 00:38:06;;;;;;;;;31.25;29.75;;;;;14.52;43.12;100672.03;5035916;28;45425;-73
2022/03/02 00:40:32;;;;;;;;;30.00;29.00;;;;;14.59;42.28;100667.78;5037465;28;45374;-73
2022/03/02 00:42:59;;;;;;;;;32.00;30.50;;;;;14.64;42.38;100670.47;5037988;28;45505;-73
2022/03/02 00:45:25;;;;;;;;;30.25;28.00;;;;;14.60;43.27;100655.53;5037089;28;45503;-73
2022/03/02 00:47:51;;;;;;;;;36.00;32.50;;;;;14.54;43.91;100648.38;5040120;28;45775;-73
2022/03/02 00:50:17;;;;;;;;;38.00;33.00;;;;;14.44;43.76;100633.34;5036137;28;45538;-73
2022/03/02 00:52:43;;;;;;;;;39.25;33.75;;;;;14.63;44.82;100671.34;5037256;28;45852;-73
2022/03/02 00:55:10;;;;;;;;;39.25;33.25;;;;;14.60;44.13;100671.28;5035997;28;46563;-73
2022/03/02 00:57:35;;;;;;;;;36.75;31.00;;;;;14.55;44.17;100673.81;5035542;28;45513;-72
2022/03/02 01:00:01;;;;;;;;;42.50;33.50;;;;;14.34;44.58;100640.19;5037026;28;45362;-73
2022/03/02 01:02:26;;;;;;;;;34.75;31.00;;;;;14.47;45.05;100663.19;5037612;28;45423;-73
2022/03/02 01:04:52;;;;;;;;;38.25;32.00;;;;;14.51;45.03;100666.75;5036851;28;45372;-73
2022/03/02 01:07:17;;;;;;;;;32.75;31.00;;;;;14.43;44.96;100661.38;5037087;28;45596;-72
2022/03/02 01:09:43;;;;;;;;;34.75;30.50;;;;;14.39;44.82;100648.16;5036977;28;45523;-73
2022/03/02 01:12:09;;;;;;;;;34.00;32.50;;;;;14.47;44.20;100657.06;5037143;28;45497;-73
2022/03/02 01:14:35;;;;;;;;;33.25;31.75;;;;;14.55;44.84;100676.47;5036385;28;46304;-73
2022/03/02 01:17:00;;;;;;;;;35.75;33.00;;;;;14.58;44.33;100681.78;5036904;28;45639;-72
2022/03/02 01:19:26;;;;;;;;;35.25;32.00;;;;;14.57;44.87;100680.03;5036608;28;45417;-72
2022/03/02 01:21:52;;;;;;;;;34.25;31.75;;;;;14.57;44.29;100679.16;5037055;28;46115;-74
2022/03/02 01:24:18;;;;;;;;;33.75;30.75;;;;;14.50;44.59;100667.59;5035996;28;46188;-72
2022/03/02 01:26:44;;;;;;;;;36.75;33.25;;;;;14.46;42.61;100657.91;5037332;28;45348;-73
2022/03/02 01:29:10;;;;;;;;;34.75;32.50;;;;;14.51;44.50;100672.00;5037766;28;45351;-73
2022/03/02 01:31:35;;;;;;;;;35.75;32.00;;;;;14.58;44.22;100684.41;5038172;28;45423;-73
2022/03/02 01:34:01;;;;;;;;;35.50;31.75;;;;;14.52;45.39;100677.31;5037214;28;45501;-72
2022/03/02 01:36:27;;;;;;;;;34.75;31.75;;;;;14.41;45.55;100663.09;5037008;28;45472;-73
2022/03/02 01:38:52;;;;;;;;;35.50;31.50;;;;;14.35;44.96;100651.59;5037415;28;45483;-73
2022/03/02 01:41:21;;;;;;;;;34.25;32.50;;;;;14.42;44.65;100672.72;5038329;28;45490;-72
2022/03/02 01:43:48;;;;;;;;;34.50;31.50;;;;;14.55;45.79;100691.34;5037024;28;45352;-72
2022/03/02 01:46:16;;;;;;;;;38.00;33.25;;;;;14.25;45.50;100642.69;5037635;28;45525;-73
2022/03/02 01:48:42;;;;;;;;;36.25;32.50;;;;;14.52;46.69;100689.53;5037167;28;45488;-72
2022/03/02 01:51:09;;;;;;;;;38.50;33.00;;;;;14.38;47.14;100677.91;5037355;28;45403;-73
2022/03/02 01:53:35;;;;;;;;;31.00;30.25;;;;;14.44;46.64;100680.66;5036740;28;45545;-73
2022/03/02 01:56:02;;;;;;;;;31.75;30.25;;;;;14.47;47.16;100692.09;5036744;28;45472;-73
2022/03/02 01:58:28;;;;;;;;;31.25;30.00;;;;;14.45;46.70;100683.31;5036890;28;45311;-73
2022/03/02 02:00:55;;;;;;;;;40.25;31.25;;;;;14.45;46.67;100683.31;5035929;28;45640;-72
2022/03/02 02:03:21;;;;;;;;;32.00;30.75;;;;;14.45;48.31;100671.91;5036809;28;46459;-73
2022/03/02 02:05:47;;;;;;;;;32.25;31.00;;;;;14.36;47.81;100659.50;5036695;28;45574;-73
2022/03/02 02:08:13;;;;;;;;;35.50;31.00;;;;;14.42;48.21;100670.09;5036757;28;45466;-73
2022/03/02 02:10:39;;;;;;;;;34.00;31.00;;;;;14.49;47.01;100682.50;5037025;28;45410;-72
2022/03/02 02:13:05;;;;;;;;;38.50;31.50;;;;;14.41;48.39;100663.09;5035348;28;47833;-73
2022/03/02 02:15:31;;;;;;;;;37.75;31.00;;;;;14.40;49.42;100663.94;5036656;28;45394;-73
2022/03/02 02:17:57;;;;;;;;;31.50;29.00;;;;;14.43;51.34;100671.88;5036477;28;45554;-73
2022/03/02 02:20:23;;;;;;;;;33.50;29.50;;;;;14.36;53.06;100670.00;5037190;28;45510;-73
2022/03/02 02:22:49;;;;;;;;;36.00;30.25;;;;;14.21;52.20;100651.38;5047825;28;45588;-73
2022/03/02 02:25:16;;;;;;;;;26.00;24.50;;;;;14.15;52.71;100648.66;5035311;28;45450;-72
2022/03/02 02:27:45;;;;;;;;;34.75;31.00;;;;;14.19;54.37;100659.22;5036278;28;45385;-73
2022/03/02 02:30:15;;;;;;;;;3.00;2.00;;;;;14.16;51.54;100658.28;5032917;28;45443;-72
2022/03/02 02:32:42;;;;;;;;;25.25;24.50;;;;;14.09;50.25;100654.69;5036203;28;46053;-75
2022/03/02 02:35:09;;;;;;;;;29.75;27.50;;;;;14.20;51.27;100660.97;5034038;28;45336;-73
2022/03/02 02:37:37;;;;;;;;;29.25;26.25;;;;;14.11;51.81;100645.97;5033089;28;45577;-74
2022/03/02 02:40:10;;;;;;;;;26.50;25.25;;;;;14.18;52.08;100664.44;5035524;28;45390;-73
2022/03/02 02:42:37;;;;;;;;;32.00;27.75;;;;;14.05;54.84;100647.59;5034260;28;46133;-73
2022/03/02 02:45:04;;;;;;;;;30.00;27.25;;;;;14.09;54.81;100655.56;5035805;28;45500;-74
2022/03/02 02:47:30;;;;;;;;;31.25;30.00;;;;;13.94;54.52;100642.16;5036000;28;45450;-72
2022/03/02 02:49:55;;;;;;;;;27.00;24.00;;;;;13.92;54.16;100631.59;5036776;28;45494;-73
2022/03/02 02:52:21;;;;;;;;;29.75;26.25;;;;;13.85;52.20;100608.75;5035974;28;46142;-73
2022/03/02 02:54:48;;;;;;;;;27.75;26.25;;;;;13.90;52.80;100611.44;5028550;28;45788;-73
2022/03/02 02:57:14;;;;;;;;;30.25;28.25;;;;;13.96;51.87;100622.03;5036471;28;45370;-72
2022/03/02 02:59:39;;;;;;;;;32.00;28.25;;;;;13.99;51.15;100616.88;5036624;28;45425;-73
2022/03/02 03:02:05;;;;;;;;;34.50;28.75;;;;;13.97;51.75;100613.31;5035841;28;45631;-73
2022/03/02 03:04:31;;;;;;;;;51.00;39.75;;;;;13.71;55.26;100579.63;5035866;28;45405;-72
2022/03/02 03:06:57;;;;;;;;;36.00;33.25;;;;;13.53;59.38;100584.53;5036285;28;45459;-72
2022/03/02 03:09:22;;;;;;;;;51.75;40.50;;;;;13.45;58.70;100587.03;5036106;28;45495;-72
2022/03/02 03:11:48;;;;;;;;;41.50;34.00;;;;;13.32;59.37;100575.38;5036310;28;45425;-73
2022/03/02 03:14:15;;;;;;;;;53.00;43.00;;;;;13.42;56.93;100607.06;5035600;28;46198;-73
2022/03/02 03:16:42;;;;;;;;;47.00;37.75;;;;;13.30;57.37;100579.72;5035731;28;45734;-73
2022/03/02 03:19:08;;;;;;;;;56.50;43.00;;;;;13.29;57.47;100564.84;5035806;28;45330;-73
2022/03/02 03:21:34;;;;;;;;;45.25;37.25;;;;;13.25;55.70;100554.22;5035517;28;46584;-73
2022/03/02 03:24:01;;;;;;;;;25.25;24.00;;;;;12.93;53.44;100481.03;5035432;28;45511;-73
2022/03/02 03:26:27;;;;;;;;;25.50;25.50;;;;;13.41;52.16;100548.47;5036073;28;45649;-73
2022/03/02 03:28:53;;;;;;;;;22.00;20.75;;;;;13.56;51.99;100557.47;5035542;28;45526;-73
2022/03/02 03:31:19;;;;;;;;;24.25;20.75;;;;;13.55;53.53;100546.09;5035039;28;45508;-72
2022/03/02 03:33:45;;;;;;;;;23.00;21.75;;;;;13.63;54.39;100568.09;5040280;28;45720;-73
2022/03/02 03:36:10;;;;;;;;;23.00;23.00;;;;;13.61;54.23;100558.41;5034434;28;45614;-73
2022/03/02 03:38:36;;;;;;;;;26.00;24.25;;;;;13.52;54.76;100543.38;5035576;28;45433;-73
2022/03/02 03:41:01;;;;;;;;;24.50;21.25;;;;;13.51;53.56;100545.13;5036032;28;45459;-73
2022/03/02 03:43:27;;;;;;;;;21.75;20.00;;;;;13.52;53.40;100546.00;5035508;28;45478;-73
2022/03/02 03:45:52;;;;;;;;;23.75;21.50;;;;;13.53;55.29;100553.91;5035494;28;45547;-72
2022/03/02 03:48:18;;;;;;;;;26.00;25.00;;;;;13.44;55.66;100539.75;5038893;28;45513;-72
2022/03/02 03:50:45;;;;;;;;;23.75;23.50;;;;;13.46;55.21;100545.91;5039519;28;46148;-73
2022/03/02 03:53:11;;;;;;;;;22.25;19.75;;;;;13.46;55.42;100546.78;5039801;28;45702;-73
2022/03/02 03:55:38;;;;;;;;;22.75;20.00;;;;;13.46;54.18;100535.41;5039340;28;45430;-73
2022/03/02 03:58:05;;;;;;;;;22.75;20.75;;;;;13.52;53.68;100540.75;5039969;28;45259;-73
2022/03/02 04:00:31;;;;;;;;;21.50;21.50;;;;;13.60;53.70;100547.03;5039865;28;45243;-73
2022/03/02 04:02:57;;;;;;;;;18.25;17.00;;;;;13.48;53.38;100520.56;5039398;28;45601;-73
2022/03/02 04:05:22;;;;;;;;;22.50;20.50;;;;;13.55;53.42;100532.97;5039839;28;45382;-73
2022/03/02 04:07:48;;;;;;;;;19.75;18.50;;;;;13.58;53.81;100532.13;5038686;28;45419;-73
2022/03/02 04:10:14;;;;;;;;;20.50;18.50;;;;;13.57;53.23;100539.13;5039134;28;45649;-72
2022/03/02 04:12:41;;;;;;;;;20.50;18.75;;;;;13.53;53.04;100538.19;5039406;28;45438;-72
2022/03/02 04:15:07;;;;;;;;;19.00;14.50;;;;;13.52;51.87;100527.66;5039578;28;45860;-72
2022/03/02 04:17:33;;;;;;;;;20.75;18.50;;;;;13.00;52.38;100432.25;5039183;28;47136;-72
2022/03/02 04:19:59;;;;;;;;;18.75;17.25;;;;;13.31;52.20;100479.19;5039357;28;45430;-73
2022/03/02 04:22:24;;;;;;;;;15.50;14.25;;;;;13.44;51.71;100495.13;5038452;28;45592;-72
2022/03/02 04:24:50;;;;;;;;;16.25;15.75;;;;;13.47;52.24;100510.94;5038707;28;45434;-73
2022/03/02 04:27:15;;;;;;;;;18.50;16.00;;;;;13.38;52.08;100500.28;5038551;28;45371;-76
2022/03/02 04:29:41;;;;;;;;;15.75;14.25;;;;;13.44;52.86;100510.88;5036588;28;46710;-72
2022/03/02 04:32:07;;;;;;;;;16.50;14.75;;;;;13.44;52.43;100506.50;5038282;28;45723;-73
2022/03/02 04:34:33;;;;;;;;;17.75;17.00;;;;;13.41;51.73;100510.81;5038966;28;45292;-73
2022/03/02 04:36:58;;;;;;;;;20.75;20.00;;;;;13.36;52.72;100497.63;5039261;28;45591;-72
2022/03/02 04:39:24;;;;;;;;;24.25;20.25;;;;;13.47;52.34;100510.94;5038170;28;45346;-73
2022/03/02 04:41:50;;;;;;;;;18.25;17.25;;;;;13.51;52.63;100524.16;5038605;28;45295;-73
2022/03/02 04:44:15;;;;;;;;;19.00;18.00;;;;;13.55;52.20;100518.94;5037589;28;45495;-73
2022/03/02 04:46:41;;;;;;;;;20.75;20.75;;;;;13.60;52.14;100523.41;5038713;28;45391;-73
2022/03/02 04:49:13;;;;;;;;;19.50;17.00;;;;;13.55;51.83;100506.72;5037858;28;46215;-73
2022/03/02 04:51:42;;;;;;;;;21.25;20.00;;;;;13.62;51.76;100521.69;5038348;28;45432;-73
2022/03/02 04:54:08;;;;;;;;;15.50;14.75;;;;;13.61;51.64;100521.66;5037934;28;45398;-73
2022/03/02 04:56:34;;;;;;;;;18.25;18.00;;;;;13.69;51.94;100530.56;5038144;28;45537;-72
2022/03/02 04:59:03;;;;;;;;;21.25;18.50;;;;;13.69;51.84;100523.56;5038272;28;45544;-72
2022/03/02 05:01:30;;;;;;;;;17.00;17.00;;;;;13.60;52.63;100505.03;5037803;28;45426;-74
2022/03/02 05:03:56;;;;;;;;;17.50;16.00;;;;;13.54;52.64;100502.31;5037807;28;45505;-74
2022/03/02 05:06:21;;;;;;;;;18.00;15.25;;;;;13.48;52.70;100497.84;5038221;28;45513;-74
2022/03/02 05:08:47;;;;;;;;;14.25;13.25;;;;;13.52;52.62;100499.66;5037628;28;46285;-74
2022/03/02 05:11:12;;;;;;;;;16.75;14.00;;;;;13.59;52.77;100513.78;5037989;28;45866;-74
2022/03/02 05:13:38;;;;;;;;;22.50;16.75;;;;;13.47;53.34;100497.84;5038176;28;45434;-74
2022/03/02 05:16:04;;;;;;;;;18.00;15.50;;;;;13.55;53.10;100509.34;5037127;28;45532;-74
2022/03/02 05:18:30;;;;;;;;;11.75;11.00;;;;;13.61;52.32;100513.78;5037576;28;46412;-75
2022/03/02 05:20:55;;;;;;;;;19.50;16.25;;;;;13.48;52.12;100491.72;5037332;28;45893;-74
2022/03/02 05:23:21;;;;;;;;;23.25;20.75;;;;;13.35;51.90;100463.47;5037655;28;45409;-75
2022/03/02 05:25:46;;;;;;;;;18.50;17.25;;;;;13.55;51.72;100496.22;5037306;28;45387;-74
2022/03/02 05:28:12;;;;;;;;;22.50;21.50;;;;;13.48;52.63;100483.84;5037310;28;46644;-74
2022/03/02 05:30:37;;;;;;;;;15.50;14.00;;;;;13.71;51.75;100515.72;5052831;28;45576;-75
2022/03/02 05:33:03;;;;;;;;;16.00;13.75;;;;;13.77;51.80;100518.47;5054405;28;45244;-74
2022/03/02 05:35:29;;;;;;;;;25.75;25.50;;;;;13.58;51.82;100492.75;5038546;28;45443;-74
2022/03/02 05:37:55;;;;;;;;;18.50;15.00;;;;;13.78;52.39;100524.59;5038271;28;46199;-74
2022/03/02 05:40:21;;;;;;;;;14.50;13.50;;;;;13.70;51.44;100509.56;5038283;28;45334;-74
2022/03/02 05:42:47;;;;;;;;;17.75;14.75;;;;;13.63;51.58;100494.59;5038059;28;45435;-74
2022/03/02 05:45:13;;;;;;;;;15.25;14.25;;;;;13.70;51.65;100506.06;5037438;28;45402;-74
2022/03/02 05:47:39;;;;;;;;;16.75;14.75;;;;;13.66;52.69;100513.00;5036663;28;46366;-74
2022/03/02 05:50:07;;;;;;;;;20.25;19.50;;;;;13.56;53.17;100518.97;5036421;28;45434;-75
2022/03/02 05:52:33;;;;;;;;;20.50;19.75;;;;;13.39;53.21;100496.78;5036523;28;45584;-74
2022/03/02 05:54:59;;;;;;;;;23.00;20.75;;;;;13.43;53.27;100514.34;5036233;28;46093;-76
2022/03/02 05:57:25;;;;;;;;;20.75;20.25;;;;;13.43;52.99;100525.75;5035588;28;46150;-77
2022/03/02 05:59:51;;;;;;;;;16.00;14.25;;;;;13.38;53.76;100526.53;5035826;28;45554;-75
2022/03/02 06:02:17;;;;;;;;;20.00;19.00;;;;;13.31;53.86;100515.03;5035892;28;45454;-76
2022/03/02 06:04:43;;;;;;;;;15.25;13.25;;;;;13.30;54.03;100524.63;5036290;28;45564;-76
2022/03/02 06:07:09;;;;;;;;;15.50;15.25;;;;;13.37;53.09;100533.50;5035700;28;46399;-76
2022/03/02 06:09:35;;;;;;;;;18.00;16.00;;;;;13.21;53.55;100513.94;5035804;28;45474;-74
2022/03/02 06:12:00;;;;;;;;;15.00;14.00;;;;;13.24;53.52;100516.63;5036173;28;45534;-76
2022/03/02 06:14:26;;;;;;;;;16.50;14.25;;;;;13.46;53.32;100545.91;5034073;28;45411;-74
2022/03/02 06:16:52;;;;;;;;;15.00;13.50;;;;;13.40;53.03;100530.06;5036312;28;45568;-75
2022/03/02 06:19:18;;;;;;;;;16.00;12.50;;;;;13.54;53.25;100560.06;5047295;28;45508;-74
2022/03/02 06:21:47;;;;;;;;;15.75;14.00;;;;;13.50;52.66;100545.09;5025965;28;45392;-74
2022/03/02 06:24:14;;;;;;;;;13.25;13.00;;;;;13.59;52.99;100561.03;5037389;28;45451;-75
2022/03/02 06:26:41;;;;;;;;;14.50;14.00;;;;;13.68;52.44;100573.41;5037153;28;45371;-74
2022/03/02 06:29:07;;;;;;;;;14.00;12.25;;;;;13.64;52.19;100567.22;5037282;28;45552;-74
2022/03/02 06:31:33;;;;;;;;;14.00;14.00;;;;;13.75;52.39;100585.81;5037403;28;45362;-74
2022/03/02 06:34:00;;;;;;;;;12.50;12.25;;;;;13.67;52.25;100563.78;5036963;28;45442;-76
2022/03/02 06:36:26;;;;;;;;;19.50;15.25;;;;;13.77;52.34;100585.81;5036015;28;46182;-76
2022/03/02 06:38:52;;;;;;;;;16.25;14.00;;;;;13.71;52.39;100584.88;5035728;28;45475;-77
2022/03/02 06:41:29;;;;;;;;;13.50;13.25;;;;;13.78;52.77;100598.97;5036500;28;45466;-74
2022/03/02 06:44:04;;;;;;;;;14.25;14.25;;;;;13.68;53.21;100602.28;5021396;28;45563;-74
2022/03/02 06:46:32;;;;;;;;;14.25;12.75;;;;;13.78;54.08;100626.97;5037064;28;45671;-74
2022/03/02 06:49:15;;;;;;;;;14.25;14.25;;;;;13.66;55.26;100623.25;5036405;28;45426;-77
2022/03/02 06:51:43;;;;;;;;;14.00;13.25;;;;;13.70;56.70;100634.72;5036659;28;45386;-73
2022/03/02 06:54:11;;;;;;;;;13.00;13.00;;;;;13.70;57.10;100655.72;5037087;28;45533;-73
2022/03/02 06:56:48;;;;;;;;;14.50;11.75;;;;;13.62;57.17;100637.19;5037040;28;46121;-73
2022/03/02 06:59:25;;;;;;;;;12.50;11.50;;;;;13.55;58.00;100630.06;5035479;28;45833;-75
2022/03/02 07:01:51;;;;;;;;;10.25;9.50;;;;;13.66;58.57;100653.88;5021439;28;45481;-73
2022/03/02 07:04:19;;;;;;;;;11.00;10.75;;;;;13.58;58.68;100647.59;5036099;28;45748;-73
2022/03/02 07:06:46;;;;;;;;;13.25;12.00;;;;;13.53;58.38;100632.66;5034543;28;45545;-74
2022/03/02 07:09:11;;;;;;;;;11.50;10.50;;;;;13.41;59.04;100618.41;5036189;28;45772;-74
2022/03/02 07:11:39;;;;;;;;;12.75;12.75;;;;;13.59;58.66;100649.38;5036256;28;45664;-74
2022/03/02 07:14:07;;;;;;;;;14.50;14.25;;;;;13.45;58.35;100631.63;5036158;28;45660;-73
2022/03/02 07:16:33;;;;;;;;;14.75;12.50;;;;;13.38;58.92;100626.22;5035000;28;46698;-74
2022/03/02 07:18:58;;;;;;;;;12.00;11.25;;;;;13.46;59.11;100641.25;5034927;28;45556;-77
2022/03/02 07:21:29;;;;;;;;;32.50;28.50;;;;;13.49;57.28;100643.06;5035524;28;45483;-76
2022/03/02 07:24:17;;;;;;;;;50.75;41.25;;;;;13.43;58.09;100635.97;5039262;28;46207;-77
2022/03/02 07:26:55;;;;;;;;;28.25;26.25;;;;;13.48;57.29;100644.78;5038584;28;45513;-74
2022/03/02 07:29:22;;;;;;;;;21.75;18.50;;;;;13.60;56.48;100653.78;5038916;28;45640;-74
2022/03/02 07:31:51;;;;;;;;;21.50;20.50;;;;;13.55;56.63;100643.19;5039125;28;46049;-73
2022/03/02 07:34:18;;;;;;;;;13.25;12.50;;;;;13.46;57.00;100637.75;5038768;28;45593;-76
2022/03/02 07:36:44;;;;;;;;;6.50;6.00;;;;;13.46;57.07;100643.88;5038796;28;45513;-74
2022/03/02 07:39:10;;;;;;;;;7.00;6.00;;;;;13.35;58.08;100631.41;5038185;28;45367;-76
2022/03/02 07:41:36;;;;;;;;;3.50;3.00;;;;;13.15;58.49;100618.75;5039337;28;45514;-74
2022/03/02 07:44:03;;;;;;;;;3.00;2.67;;;;;13.18;58.98;100639.78;5038989;28;45604;-74
2022/03/02 07:46:29;;;;;;;;;2.00;2.00;;;;;13.03;58.84;100613.22;5039264;28;45970;-77
2022/03/02 07:48:57;;;;;;;;;2.33;2.00;;;;;13.05;58.67;100643.00;5038544;28;45405;-76
2022/03/02 07:51:24;;;;;;;;;2.25;2.00;;;;;12.82;60.09;100614.53;5037485;28;45591;-76
2022/03/02 07:53:53;;;;;;;;;6.75;6.75;;;;;12.74;60.31;100617.00;5038678;28;45587;-76
2022/03/02 07:56:20;;;;;;;;;4.25;4.00;;;;;12.80;61.04;100660.81;5038362;28;45837;-76
2022/03/02 07:58:46;;;;;;;;;2.67;2.33;;;;;12.87;62.50;100685.44;5039326;28;45524;-73
2022/03/02 08:01:17;;;;;;;;;4.00;4.00;;;;;12.67;63.11;100667.53;5040180;28;45350;-73
2022/03/02 08:03:45;;;;;;;;;3.00;3.00;;;;;12.72;63.66;100693.84;5055818;28;45417;-76
2022/03/02 08:06:11;;;;;;;;;4.00;4.00;;;;;12.74;62.40;100697.38;5039792;28;46211;-74
2022/03/02 08:08:38;;;;;;;;;5.50;3.50;;;;;12.80;60.91;100697.53;5039643;28;45709;-73
2022/03/02 08:11:05;;;;;;;;;7.75;6.75;;;;;13.00;60.79;100715.44;5039427;28;45400;-73
2022/03/02 08:13:34;;;;;;;;;4.00;4.00;;;;;13.08;60.72;100721.75;5039568;28;45444;-74
2022/03/02 08:16:00;;;;;;;;;4.00;4.00;;;;;13.11;61.10;100732.28;5036595;28;48227;-73
2022/03/02 08:18:27;;;;;;;;;4.75;4.75;;;;;13.21;61.73;100741.25;5038882;28;45597;-73
2022/03/02 08:20:57;;;;;;;;;7.75;6.50;;;;;13.17;60.99;100723.69;5037686;28;45499;-73
2022/03/02 08:23:27;;;;;;;;;9.00;8.50;;;;;13.27;61.46;100737.06;5038506;28;45461;-73
2022/03/02 08:25:53;;;;;;;;;14.00;13.25;;;;;13.27;62.61;100744.94;5038309;28;45524;-73
2022/03/02 08:28:21;;;;;;;;;25.75;25.00;;;;;13.29;60.56;100743.25;5037014;28;45463;-73
2022/03/02 08:30:50;;;;;;;;;7.00;6.00;;;;;13.14;61.33;100706.16;5036584;28;45508;-75
2022/03/02 08:33:21;;;;;;;;;9.75;8.75;;;;;13.19;63.21;100712.41;5036926;28;46688;-73
2022/03/02 08:35:50;;;;;;;;;8.75;7.00;;;;;13.28;64.01;100728.31;5036669;28;46164;-73
2022/03/02 08:38:16;;;;;;;;;7.00;6.25;;;;;13.36;63.39;100728.53;5032852;28;45847;-74
2022/03/02 08:40:43;;;;;;;;;9.25;9.00;;;;;13.54;61.75;100743.78;5037534;28;45373;-73
2022/03/02 08:43:08;;;;;;;;;16.25;15.50;;;;;13.65;63.05;100731.75;5037333;28;45528;-74
2022/03/02 08:45:34;;;;;;;;;34.50;31.75;;;;;13.93;63.41;100745.44;5036553;28;45437;-73
2022/03/02 08:48:01;;;;;;;;;31.00;30.50;;;;;14.15;62.43;100744.09;5037489;28;45369;-73
2022/03/02 08:50:28;;;;;;;;;25.25;23.75;;;;;14.35;61.40;100725.19;5037864;28;45799;-72
2022/03/02 08:52:55;;;;;;;;;22.00;19.25;;;;;14.64;60.53;100728.31;5037368;28;45644;-73
2022/03/02 08:55:23;;;;;;;;;11.75;10.75;;;;;15.03;60.74;100735.94;5037490;28;45414;-73
2022/03/02 08:57:49;;;;;;;;;14.00;11.75;;;;;15.38;59.15;100732.03;5036702;28;45446;-73
2022/03/02 09:00:15;;;;;;;;;9.00;8.67;;;;;15.73;58.21;100721.09;5038408;28;45488;-73
2022/03/02 09:02:42;;;;;;;;;14.25;10.25;;;;;16.09;57.34;100704.81;5037907;28;45400;-73
2022/03/02 09:05:08;;;;;;;;;11.33;10.33;;;;;16.81;55.50;100739.75;5038585;28;45430;-73
2022/03/02 09:07:34;;;;;;;;;56.50;46.75;;;;;17.20;53.88;100747.94;5037980;28;45392;-72
2022/03/02 09:10:01;;;;;;;;;15.00;13.75;;;;;17.73;53.35;100738.53;5038388;28;45496;-73
2022/03/02 09:12:27;;;;;;;;;11.67;11.00;;;;;18.51;51.84;100727.25;5037344;28;45462;-73
2022/03/02 09:14:53;;;;;;;;;10.00;9.00;;;;;19.31;48.99;100732.47;5036907;28;45936;-73
2022/03/02 09:17:25;;;;;;;;;11.33;10.67;;;;;19.63;47.31;100722.59;5038070;28;45770;-73
2022/03/02 09:19:52;;;;;;;;;14.00;12.67;;;;;19.37;47.86;100717.41;5038106;28;45453;-74
2022/03/02 09:22:18;;;;;;;;;9.33;8.33;;;;;19.01;47.11;100721.06;5038559;28;45431;-73
2022/03/02 09:24:44;;;;;;;;;12.00;8.33;;;;;18.77;49.65;100741.34;5037919;28;46465;-73
2022/03/02 09:27:11;;;;;;;;;10.67;6.67;;;;;18.35;50.59;100735.16;5037282;28;45585;-73
2022/03/02 09:29:42;;;;;;;;;5.67;5.33;;;;;17.97;51.77;100746.56;5037520;28;45568;-73
2022/03/02 09:32:09;;;;;;;;;6.67;6.33;;;;;17.53;52.21;100752.53;5037479;28;45379;-73
2022/03/02 09:34:40;;;;;;;;;5.00;5.00;;;;;17.21;52.36;100757.59;5037454;28;46174;-74
2022/03/02 09:37:09;;;;;;;;;6.33;6.33;;;;;16.75;54.58;100778.34;5037264;28;45446;-74
2022/03/02 09:39:35;;;;;;;;;7.00;6.67;;;;;16.16;56.76;100780.44;5036921;28;45809;-73
2022/03/02 09:42:03;;;;;;;;;5.00;4.00;;;;;15.70;57.42;100786.00;5037438;28;45477;-73
2022/03/02 09:44:42;;;;;;;;;3.67;3.00;;;;;15.33;58.63;100779.38;5036035;28;46030;-73
2022/03/02 09:47:13;;;;;;;;;8.33;7.00;;;;;15.04;58.66;100779.84;5037154;28;45323;-73
2022/03/02 09:49:47;;;;;;;;;13.00;11.25;;;;;14.79;59.66;100778.53;5036340;28;45439;-73
2022/03/02 09:52:18;;;;;;;;;6.00;5.00;;;;;14.61;59.59;100786.13;5037309;28;45511;-73
2022/03/02 09:54:45;;;;;;;;;6.00;6.00;;;;;14.41;60.83;100769.97;5036832;28;46458;-73
2022/03/02 09:57:11;;;;;;;;;3.33;2.00;;;;;13.92;61.21;100699.00;5036628;28;46401;-73
2022/03/02 09:59:39;;;;;;;;;3.00;3.00;;;;;14.34;61.70;100787.34;5036715;28;45421;-73
2022/03/02 10:02:07;;;;;;;;;6.00;6.00;;;;;14.24;61.76;100786.28;5037467;28;45363;-73
2022/03/02 10:04:35;;;;;;;;;7.00;7.00;;;;;14.18;62.67;100793.19;5036719;28;45387;-73
2022/03/02 10:09:51;;;;;;;;;6.00;5.67;;;;;14.25;62.60;100800.34;5037509;28;45366;-73
2022/03/02 10:12:23;;;;;;;;;5.00;5.00;;;;;14.21;62.84;100780.13;5038466;28;45498;-73
2022/03/02 10:14:49;;;;;;;;;18.75;17.50;;;;;14.27;62.63;100790.75;5036747;28;46070;-73
2022/03/02 10:17:20;;;;;;;;;7.00;6.00;;;;;14.36;61.90;100797.91;5037431;28;45378;-73
2022/03/02 10:19:53;;;;;;;;;3.67;3.00;;;;;14.47;62.02;100791.13;5037162;28;45540;-73
2022/03/02 10:22:39;;;;;;;;;3.67;2.33;;;;;14.58;61.43;100784.31;5036800;28;45308;-73
2022/03/02 10:25:07;;;;;;;;;6.33;6.00;;;;;14.73;61.51;100785.47;5036394;28;46144;-73
2022/03/02 10:28:04;;;;;;;;;5.00;4.00;;;;;14.85;61.13;100786.53;5035724;28;45508;-74
2022/03/02 10:30:40;;;;;;;;;3.00;2.00;;;;;14.91;59.93;100791.88;5036337;28;45434;-73
2022/03/02 10:33:21;;;;;;;;;6.00;5.00;;;;;14.89;59.46;100785.72;5036703;28;45544;-73
2022/03/02 10:36:01;;;;;;;;;4.00;4.00;;;;;14.95;59.13;100795.47;5036515;28;46579;-73
2022/03/02 10:38:42;;;;;;;;;3.00;3.00;;;;;14.93;59.21;100788.41;5036253;28;45456;-73
2022/03/02 10:41:09;;;;;;;;;3.67;3.00;;;;;14.89;60.11;100775.19;5036146;28;45345;-73
2022/03/02 10:43:57;;;;;;;;;11.00;9.00;;;;;14.98;58.54;100798.16;5036240;28;45390;-73
2022/03/02 10:46:23;;;;;;;;;4.00;3.00;;;;;14.75;60.20;100791.63;5036201;28;45516;-73
2022/03/02 10:48:56;;;;;;;;;9.00;8.00;;;;;14.54;60.00;100756.16;5036047;28;45538;-73
2022/03/02 10:51:25;;;;;;;;;7.67;7.33;;;;;14.80;59.75;100800.47;5021598;28;45701;-73
2022/03/02 10:53:52;;;;;;;;;5.67;4.33;;;;;14.75;60.89;100800.41;5036715;28;45297;-73
2022/03/02 10:56:20;;;;;;;;;6.00;6.00;;;;;14.70;61.43;100797.69;5035938;28;46144;-73
2022/03/02 10:58:50;;;;;;;;;2.67;2.67;;;;;14.69;61.73;100800.28;5035792;28;45522;-73
2022/03/02 11:01:19;;;;;;;;;2.33;2.33;;;;;14.60;60.55;100810.63;5035286;28;45371;-73
2022/03/02 11:03:45;;;;;;;;;8.00;7.00;;;;;14.44;60.27;100802.47;5036332;28;45514;-75
2022/03/02 11:06:11;;;;;;;;;14.00;13.00;;;;;14.53;59.87;100807.88;5035771;28;46106;-78
2022/03/02 11:08:38;;;;;;;;;8.00;8.00;;;;;14.46;58.93;100808.63;5036288;28;45339;-77
2022/03/02 11:11:08;;;;;;;;;5.00;4.00;;;;;14.39;58.89;100801.47;5034867;28;45566;-74
2022/03/02 11:13:35;;;;;;;;;3.00;2.00;;;;;14.38;59.63;100802.31;5035814;28;45460;-74
2022/03/02 11:16:03;;;;;;;;;2.00;2.00;;;;;14.32;60.29;100783.81;5035703;28;45563;-73
2022/03/02 11:18:48;;;;;;;;;4.00;4.00;;;;;14.57;60.24;100822.00;5035938;28;45309;-73